Accueil
METAR-TAF:

METAR-TAF

Aéroports :

Vijayawada, Inde

latitude: 16-31-44N, longitude: 80-47-45E, altitude: 25 m

Observation

Le bulletin a été fait il y a 18 heures et 38 minutes, à 08:30 UTC
Vent 2 kt de sud/sud-ouest
Température 37°C
Humidité 45%
Pression 1008 hPa
Visibilité: 6000 m
Quelques nuages à une hauteur de 2000 ft
Nuages épars à une hauteur de 2500 ft

METAR: VOBZ 070830Z 21002KT 6000 FEW020 SCT025 37/23 Q1008 NOSIG

Heure: 08:38 (03:08 UTC)

Prévision

Le bulletin a été fait il y a 1 heure et 8 minutes, à 02:00 UTC
Prévision valable du 08 à 03 UTC au 08 à 12 UTC
Vent 6 kt de est/sud-est
Visibilité: 6000 m
Nuages épars à une hauteur de 2000 ft

TAF: VOBZ 080200Z 0803/0812 12006KT 6000 SCT020

Observations et prévisions météorologiques de plus de 4000 aéroports (messages METAR et TAF).

Les stations disponibles sont représentées par des disques jaunes et rouges sur la carte.

Passer la souris dessus pour voir le nom de la station.

Cliquer dessus pour voir les observations et prévisions météorologiques.

Pour changer de carte: cliquez sur les boutons verts avec une croix noire pour zoomer, sur le bouton vert avec un tiret pour effectuer un zoom arrière, ou sur les flèches vertes pour les cartes adjacentes.


METAR-TAF: